sensor_id;sensor_type;location;lat;lon;timestamp;pressure;altitude;pressure_sealevel;temperature;humidity
29941;BME280;16801;53.562;10.038;2023-08-31T00:01:07;100406.03;;;15.39;100.00
29941;BME280;16801;53.562;10.038;2023-08-31T00:04:28;100403.19;;;15.33;100.00
29941;BME280;16801;53.562;10.038;2023-08-31T00:07:49;100396.56;;;15.27;100.00
29941;BME280;16801;53.562;10.038;2023-08-31T00:11:11;100388.66;;;15.17;100.00
29941;BME280;16801;53.562;10.038;2023-08-31T00:14:32;100386.47;;;15.13;100.00
29941;BME280;16801;53.562;10.038;2023-08-31T00:17:53;100387.72;;;15.02;100.00
29941;BME280;16801;53.562;10.038;2023-08-31T00:21:14;100390.38;;;15.18;100.00
29941;BME280;16801;53.562;10.038;2023-08-31T00:24:35;100386.19;;;15.08;100.00
29941;BME280;16801;53.562;10.038;2023-08-31T00:27:57;100402.38;;;15.24;100.00
29941;BME280;16801;53.562;10.038;2023-08-31T00:31:24;100399.72;;;15.16;100.00
29941;BME280;16801;53.562;10.038;2023-08-31T00:34:47;100400.09;;;15.05;100.00
29941;BME280;16801;53.562;10.038;2023-08-31T00:38:08;100407.63;;;15.26;100.00
29941;BME280;16801;53.562;10.038;2023-08-31T00:41:29;100400.13;;;14.97;100.00
29941;BME280;16801;53.562;10.038;2023-08-31T00:44:51;100391.13;;;14.96;100.00
29941;BME280;16801;53.562;10.038;2023-08-31T00:48:15;100401.13;;;14.96;100.00
29941;BME280;16801;53.562;10.038;2023-08-31T00:51:37;100409.50;;;14.86;100.00
29941;BME280;16801;53.562;10.038;2023-08-31T00:54:58;100412.84;;;14.96;100.00
29941;BME280;16801;53.562;10.038;2023-08-31T00:58:19;100403.81;;;15.12;100.00
29941;BME280;16801;53.562;10.038;2023-08-31T01:01:47;100400.72;;;14.76;100.00
29941;BME280;16801;53.562;10.038;2023-08-31T01:05:13;100405.31;;;14.76;100.00
29941;BME280;16801;53.562;10.038;2023-08-31T01:08:48;100399.19;;;14.74;100.00
29941;BME280;16801;53.562;10.038;2023-08-31T01:12:16;100410.81;;;14.52;100.00
29941;BME280;16801;53.562;10.038;2023-08-31T01:15:41;100407.41;;;14.58;100.00
29941;BME280;16801;53.562;10.038;2023-08-31T01:19:20;100402.31;;;14.47;100.00
29941;BME280;16801;53.562;10.038;2023-08-31T01:22:55;100410.97;;;14.42;100.00
29941;BME280;16801;53.562;10.038;2023-08-31T01:26:20;100409.47;;;14.31;100.00
29941;BME280;16801;53.562;10.038;2023-08-31T01:29:43;100411.13;;;14.49;100.00
29941;BME280;16801;53.562;10.038;2023-08-31T01:33:04;100418.78;;;14.37;100.00
29941;BME280;16801;53.562;10.038;2023-08-31T01:36:28;100415.03;;;14.62;100.00
29941;BME280;16801;53.562;10.038;2023-08-31T01:39:58;100418.09;;;14.51;100.00
29941;BME280;16801;53.562;10.038;2023-08-31T01:43:25;100414.72;;;14.41;100.00
29941;BME280;16801;53.562;10.038;2023-08-31T01:46:52;100427.78;;;14.46;100.00
29941;BME280;16801;53.562;10.038;2023-08-31T01:50:17;100417.75;;;14.46;100.00
29941;BME280;16801;53.562;10.038;2023-08-31T01:53:39;100421.84;;;14.34;100.00
29941;BME280;16801;53.562;10.038;2023-08-31T01:57:01;100422.16;;;14.31;100.00
29941;BME280;16801;53.562;10.038;2023-08-31T02:00:25;100428.44;;;14.15;100.00
29941;BME280;16801;53.562;10.038;2023-08-31T02:03:46;100432.00;;;14.24;100.00
29941;BME280;16801;53.562;10.038;2023-08-31T02:07:07;100426.91;;;14.29;100.00
29941;BME280;16801;53.562;10.038;2023-08-31T02:10:28;100424.34;;;14.19;100.00
29941;BME280;16801;53.562;10.038;2023-08-31T02:13:49;100428.44;;;14.31;100.00
29941;BME280;16801;53.562;10.038;2023-08-31T02:17:11;100429.78;;;14.35;100.00
29941;BME280;16801;53.562;10.038;2023-08-31T02:20:33;100420.78;;;14.27;100.00
29941;BME280;16801;53.562;10.038;2023-08-31T02:23:54;100431.63;;;14.19;100.00
29941;BME280;16801;53.562;10.038;2023-08-31T02:27:15;100429.28;;;14.40;100.00
29941;BME280;16801;53.562;10.038;2023-08-31T02:30:36;100427.94;;;14.36;100.00
29941;BME280;16801;53.562;10.038;2023-08-31T02:34:00;100431.66;;;14.11;100.00
29941;BME280;16801;53.562;10.038;2023-08-31T02:37:21;100432.81;;;14.00;100.00
29941;BME280;16801;53.562;10.038;2023-08-31T02:40:46;100440.81;;;14.18;100.00
29941;BME280;16801;53.562;10.038;2023-08-31T02:44:07;100433.69;;;14.09;100.00
29941;BME280;16801;53.562;10.038;2023-08-31T02:47:27;100440.97;;;14.08;100.00
29941;BME280;16801;53.562;10.038;2023-08-31T02:50:50;100450.81;;;14.09;100.00
29941;BME280;16801;53.562;10.038;2023-08-31T02:54:11;100443.34;;;13.95;100.00
29941;BME280;16801;53.562;10.038;2023-08-31T02:57:32;100437.75;;;13.89;100.00
29941;BME280;16801;53.562;10.038;2023-08-31T03:00:53;100440.78;;;13.94;100.00
29941;BME280;16801;53.562;10.038;2023-08-31T03:04:15;100453.63;;;13.68;100.00
29941;BME280;16801;53.562;10.038;2023-08-31T03:07:38;100452.09;;;13.73;100.00
29941;BME280;16801;53.562;10.038;2023-08-31T03:11:00;100461.94;;;13.66;100.00
29941;BME280;16801;53.562;10.038;2023-08-31T03:14:22;100455.31;;;13.69;100.00
29941;BME280;16801;53.562;10.038;2023-08-31T03:17:43;100456.66;;;13.56;100.00
29941;BME280;16801;53.562;10.038;2023-08-31T03:21:03;100459.88;;;13.60;100.00
29941;BME280;16801;53.562;10.038;2023-08-31T03:24:26;100456.66;;;13.56;100.00
29941;BME280;16801;53.562;10.038;2023-08-31T03:27:47;100444.47;;;13.60;100.00
29941;BME280;16801;53.562;10.038;2023-08-31T03:31:08;100457.31;;;13.50;100.00
29941;BME280;16801;53.562;10.038;2023-08-31T03:34:29;100460.50;;;13.46;100.00
29941;BME280;16801;53.562;10.038;2023-08-31T03:37:50;100461.88;;;13.58;100.00
29941;BME280;16801;53.562;10.038;2023-08-31T03:41:12;100464.78;;;13.64;100.00
29941;BME280;16801;53.562;10.038;2023-08-31T03:44:34;100461.41;;;13.62;100.00
29941;BME280;16801;53.562;10.038;2023-08-31T03:47:55;100455.63;;;13.49;100.00
29941;BME280;16801;53.562;10.038;2023-08-31T03:51:17;100461.56;;;13.61;100.00
29941;BME280;16801;53.562;10.038;2023-08-31T03:54:38;100467.16;;;13.51;100.00
29941;BME280;16801;53.562;10.038;2023-08-31T03:58:00;100467.47;;;13.48;100.00
29941;BME280;16801;53.562;10.038;2023-08-31T04:01:21;100467.16;;;13.59;99.73
29941;BME280;16801;53.562;10.038;2023-08-31T04:04:43;100465.91;;;13.46;99.33
29941;BME280;16801;53.562;10.038;2023-08-31T04:08:04;100471.91;;;13.66;99.04
29941;BME280;16801;53.562;10.038;2023-08-31T04:11:28;100470.16;;;13.48;98.47
29941;BME280;16801;53.562;10.038;2023-08-31T04:14:51;100470.88;;;13.58;98.79
29941;BME280;16801;53.562;10.038;2023-08-31T04:18:12;100469.88;;;13.59;98.01
29941;BME280;16801;53.562;10.038;2023-08-31T04:21:33;100466.81;;;13.62;98.07
29941;BME280;16801;53.562;10.038;2023-08-31T04:24:54;100468.53;;;13.63;97.71
29941;BME280;16801;53.562;10.038;2023-08-31T04:28:15;100470.69;;;13.52;97.83
29941;BME280;16801;53.562;10.038;2023-08-31T04:31:47;100468.16;;;13.58;97.60
29941;BME280;16801;53.562;10.038;2023-08-31T04:35:25;100482.84;;;13.48;97.82
29941;BME280;16801;53.562;10.038;2023-08-31T04:38:47;100492.25;;;13.28;97.93
29941;BME280;16801;53.562;10.038;2023-08-31T04:42:08;100497.03;;;13.34;98.30
29941;BME280;16801;53.562;10.038;2023-08-31T04:45:30;100495.84;;;13.36;98.37
29941;BME280;16801;53.562;10.038;2023-08-31T04:48:52;100503.31;;;13.42;98.42
29941;BME280;16801;53.562;10.038;2023-08-31T04:52:13;100503.28;;;13.34;98.34
29941;BME280;16801;53.562;10.038;2023-08-31T04:55:33;100507.59;;;13.11;98.56
29941;BME280;16801;53.562;10.038;2023-08-31T04:58:54;100516.16;;;13.32;98.82
29941;BME280;16801;53.562;10.038;2023-08-31T05:02:15;100522.75;;;13.38;98.44
29941;BME280;16801;53.562;10.038;2023-08-31T05:05:37;100535.19;;;13.23;98.79
29941;BME280;16801;53.562;10.038;2023-08-31T05:08:58;100534.53;;;13.21;99.15
29941;BME280;16801;53.562;10.038;2023-08-31T05:12:20;100539.22;;;13.11;98.49
29941;BME280;16801;53.562;10.038;2023-08-31T05:15:41;100542.81;;;13.02;99.09
29941;BME280;16801;53.562;10.038;2023-08-31T05:19:01;100544.09;;;13.07;99.16
29941;BME280;16801;53.562;10.038;2023-08-31T05:22:24;100549.81;;;13.30;98.99
29941;BME280;16801;53.562;10.038;2023-08-31T05:25:45;100552.00;;;13.26;98.35
29941;BME280;16801;53.562;10.038;2023-08-31T05:29:06;100564.72;;;13.34;98.62
29941;BME280;16801;53.562;10.038;2023-08-31T05:32:28;100563.22;;;13.06;98.46
29941;BME280;16801;53.562;10.038;2023-08-31T05:35:49;100562.19;;;13.32;98.50
29941;BME280;16801;53.562;10.038;2023-08-31T05:39:11;100565.41;;;13.36;98.51
29941;BME280;16801;53.562;10.038;2023-08-31T05:42:32;100564.06;;;13.40;97.87
29941;BME280;16801;53.562;10.038;2023-08-31T05:45:53;100564.22;;;13.38;98.15
29941;BME280;16801;53.562;10.038;2023-08-31T05:49:14;100567.66;;;13.48;97.40
29941;BME280;16801;53.562;10.038;2023-08-31T05:52:35;100566.69;;;13.57;97.08
29941;BME280;16801;53.562;10.038;2023-08-31T05:55:58;100561.84;;;13.77;96.45
29941;BME280;16801;53.562;10.038;2023-08-31T05:59:23;100568.72;;;13.55;95.77
29941;BME280;16801;53.562;10.038;2023-08-31T06:02:44;100566.91;;;13.64;95.83
29941;BME280;16801;53.562;10.038;2023-08-31T06:06:05;100582.84;;;13.83;95.44
29941;BME280;16801;53.562;10.038;2023-08-31T06:09:26;100585.41;;;13.77;94.74
29941;BME280;16801;53.562;10.038;2023-08-31T06:12:49;100578.69;;;13.97;95.16
29941;BME280;16801;53.562;10.038;2023-08-31T06:16:09;100577.50;;;13.99;94.42
29941;BME280;16801;53.562;10.038;2023-08-31T06:19:30;100592.88;;;13.83;94.17
29941;BME280;16801;53.562;10.038;2023-08-31T06:22:51;100586.63;;;13.90;94.32
29941;BME280;16801;53.562;10.038;2023-08-31T06:26:12;100587.34;;;14.08;93.58
29941;BME280;16801;53.562;10.038;2023-08-31T06:29:35;100588.28;;;14.41;92.66
29941;BME280;16801;53.562;10.038;2023-08-31T06:32:57;100584.72;;;14.57;91.77
29941;BME280;16801;53.562;10.038;2023-08-31T06:36:18;100590.16;;;14.32;91.21
29941;BME280;16801;53.562;10.038;2023-08-31T06:39:39;100580.44;;;14.22;91.68
29941;BME280;16801;53.562;10.038;2023-08-31T06:43:00;100584.91;;;14.55;90.36
29941;BME280;16801;53.562;10.038;2023-08-31T06:46:23;100592.19;;;14.63;89.45
29941;BME280;16801;53.562;10.038;2023-08-31T06:49:44;100586.75;;;14.47;89.11
29941;BME280;16801;53.562;10.038;2023-08-31T06:53:08;100592.19;;;14.63;88.76
29941;BME280;16801;53.562;10.038;2023-08-31T06:56:29;100591.88;;;14.58;89.05
29941;BME280;16801;53.562;10.038;2023-08-31T06:59:50;100593.91;;;14.56;88.42
29941;BME280;16801;53.562;10.038;2023-08-31T07:03:12;100580.16;;;14.65;87.76
29941;BME280;16801;53.562;10.038;2023-08-31T07:06:34;100593.03;;;14.71;86.32
29941;BME280;16801;53.562;10.038;2023-08-31T07:09:55;100602.53;;;14.59;86.78
29941;BME280;16801;53.562;10.038;2023-08-31T07:13:16;100601.19;;;14.55;86.87
29941;BME280;16801;53.562;10.038;2023-08-31T07:16:37;100599.63;;;15.09;85.93
29941;BME280;16801;53.562;10.038;2023-08-31T07:19:59;100602.69;;;14.98;85.51
29941;BME280;16801;53.562;10.038;2023-08-31T07:23:20;100599.47;;;14.94;84.71
29941;BME280;16801;53.562;10.038;2023-08-31T07:26:41;100600.31;;;15.11;83.51
29941;BME280;16801;53.562;10.038;2023-08-31T07:30:03;100591.78;;;15.30;82.32
29941;BME280;16801;53.562;10.038;2023-08-31T07:33:25;100593.84;;;15.20;82.49
29941;BME280;16801;53.562;10.038;2023-08-31T07:36:47;100593.63;;;15.38;82.47
29941;BME280;16801;53.562;10.038;2023-08-31T07:40:09;100589.00;;;15.70;81.89
29941;BME280;16801;53.562;10.038;2023-08-31T07:43:30;100595.75;;;15.74;81.82
29941;BME280;16801;53.562;10.038;2023-08-31T07:46:51;100604.13;;;15.57;82.07
29941;BME280;16801;53.562;10.038;2023-08-31T07:50:12;100596.84;;;15.57;81.92
29941;BME280;16801;53.562;10.038;2023-08-31T07:53:35;100592.16;;;15.82;81.06
29941;BME280;16801;53.562;10.038;2023-08-31T07:56:56;100598.50;;;16.05;80.40
29941;BME280;16801;53.562;10.038;2023-08-31T08:00:17;100599.44;;;15.89;80.46
29941;BME280;16801;53.562;10.038;2023-08-31T08:03:38;100600.09;;;15.45;81.36
29941;BME280;16801;53.562;10.038;2023-08-31T08:06:59;100604.06;;;15.73;81.79
29941;BME280;16801;53.562;10.038;2023-08-31T08:10:21;100602.81;;;16.22;80.40
29941;BME280;16801;53.562;10.038;2023-08-31T08:13:42;100609.88;;;15.70;81.72
29941;BME280;16801;53.562;10.038;2023-08-31T08:17:03;100607.69;;;16.04;80.93
29941;BME280;16801;53.562;10.038;2023-08-31T08:20:24;100612.06;;;15.74;80.98
29941;BME280;16801;53.562;10.038;2023-08-31T08:23:45;100609.53;;;16.34;80.34
29941;BME280;16801;53.562;10.038;2023-08-31T08:27:07;100609.03;;;16.08;80.08
29941;BME280;16801;53.562;10.038;2023-08-31T08:30:28;100612.00;;;15.90;79.28
29941;BME280;16801;53.562;10.038;2023-08-31T08:33:49;100619.81;;;16.24;79.59
29941;BME280;16801;53.562;10.038;2023-08-31T08:37:10;100616.97;;;16.40;78.70
29941;BME280;16801;53.562;10.038;2023-08-31T08:40:30;100614.09;;;17.10;77.58
29941;BME280;16801;53.562;10.038;2023-08-31T08:43:53;100611.91;;;16.68;78.38
29941;BME280;16801;53.562;10.038;2023-08-31T08:47:15;100616.91;;;16.26;78.89
29941;BME280;16801;53.562;10.038;2023-08-31T08:50:37;100619.59;;;16.64;78.42
29941;BME280;16801;53.562;10.038;2023-08-31T08:53:59;100617.63;;;16.20;78.75
29941;BME280;16801;53.562;10.038;2023-08-31T08:57:20;100608.84;;;16.86;77.93
29941;BME280;16801;53.562;10.038;2023-08-31T09:00:43;100627.06;;;16.01;78.89
29941;BME280;16801;53.562;10.038;2023-08-31T09:04:04;100622.75;;;16.45;78.45
29941;BME280;16801;53.562;10.038;2023-08-31T09:07:29;100626.63;;;16.20;79.43
29941;BME280;16801;53.562;10.038;2023-08-31T09:10:50;100623.44;;;16.09;80.31
29941;BME280;16801;53.562;10.038;2023-08-31T09:14:14;100631.28;;;16.12;80.31
29941;BME280;16801;53.562;10.038;2023-08-31T09:17:40;100633.81;;;16.13;80.22
29941;BME280;16801;53.562;10.038;2023-08-31T09:21:03;100621.75;;;16.38;79.09
29941;BME280;16801;53.562;10.038;2023-08-31T09:24:24;100636.22;;;16.69;78.25
29941;BME280;16801;53.562;10.038;2023-08-31T09:27:45;100640.19;;;16.28;78.74
29941;BME280;16801;53.562;10.038;2023-08-31T09:31:07;100650.78;;;16.15;79.46
29941;BME280;16801;53.562;10.038;2023-08-31T09:34:33;100644.13;;;15.87;80.79
29941;BME280;16801;53.562;10.038;2023-08-31T09:37:55;100652.16;;;16.42;79.22
29941;BME280;16801;53.562;10.038;2023-08-31T09:41:19;100642.97;;;16.51;78.60
29941;BME280;16801;53.562;10.038;2023-08-31T09:44:41;100640.97;;;16.90;76.85
29941;BME280;16801;53.562;10.038;2023-08-31T09:48:04;100634.59;;;17.20;75.93
29941;BME280;16801;53.562;10.038;2023-08-31T09:51:27;100635.41;;;16.84;75.75
29941;BME280;16801;53.562;10.038;2023-08-31T09:54:50;100640.50;;;16.64;77.25
29941;BME280;16801;53.562;10.038;2023-08-31T09:58:12;100646.56;;;16.13;78.91
29941;BME280;16801;53.562;10.038;2023-08-31T10:01:36;100648.09;;;15.76;79.94
29941;BME280;16801;53.562;10.038;2023-08-31T10:04:57;100640.69;;;16.62;78.19
29941;BME280;16801;53.562;10.038;2023-08-31T10:08:21;100641.09;;;17.48;76.12
29941;BME280;16801;53.562;10.038;2023-08-31T10:11:44;100646.34;;;17.21;75.03
29941;BME280;16801;53.562;10.038;2023-08-31T10:15:06;100645.56;;;17.12;74.23
29941;BME280;16801;53.562;10.038;2023-08-31T10:18:27;100649.81;;;17.81;73.36
29941;BME280;16801;53.562;10.038;2023-08-31T10:21:49;100650.38;;;17.77;71.09
29941;BME280;16801;53.562;10.038;2023-08-31T10:25:11;100648.03;;;17.74;72.35
29941;BME280;16801;53.562;10.038;2023-08-31T10:28:40;100645.81;;;18.63;69.52
29941;BME280;16801;53.562;10.038;2023-08-31T10:32:02;100639.94;;;19.30;66.77
29941;BME280;16801;53.562;10.038;2023-08-31T10:35:40;100653.78;;;18.58;66.30
29941;BME280;16801;53.562;10.038;2023-08-31T10:39:05;100652.25;;;17.91;69.14
29941;BME280;16801;53.562;10.038;2023-08-31T10:42:28;100652.94;;;17.41;70.72
29941;BME280;16801;53.562;10.038;2023-08-31T10:45:50;100651.78;;;18.02;69.09
29941;BME280;16801;53.562;10.038;2023-08-31T10:49:17;100648.44;;;18.50;67.75
29941;BME280;16801;53.562;10.038;2023-08-31T10:52:43;100647.78;;;18.48;68.22
29941;BME280;16801;53.562;10.038;2023-08-31T10:56:05;100651.09;;;18.86;65.85
29941;BME280;16801;53.562;10.038;2023-08-31T10:59:41;100643.28;;;19.25;63.82
29941;BME280;16801;53.562;10.038;2023-08-31T11:03:02;100648.13;;;19.30;64.49
29941;BME280;16801;53.562;10.038;2023-08-31T11:06:24;100641.56;;;19.73;63.00
29941;BME280;16801;53.562;10.038;2023-08-31T11:09:49;100635.88;;;19.47;62.54
29941;BME280;16801;53.562;10.038;2023-08-31T11:13:15;100644.59;;;18.66;65.12
29941;BME280;16801;53.562;10.038;2023-08-31T11:16:39;100636.78;;;18.84;64.62
29941;BME280;16801;53.562;10.038;2023-08-31T11:20:01;100650.38;;;19.20;64.15
29941;BME280;16801;53.562;10.038;2023-08-31T11:23:25;100641.63;;;19.52;62.19
29941;BME280;16801;53.562;10.038;2023-08-31T11:26:47;100642.06;;;20.30;60.26
29941;BME280;16801;53.562;10.038;2023-08-31T11:30:12;100636.34;;;21.77;55.66
29941;BME280;16801;53.562;10.038;2023-08-31T11:33:35;100634.47;;;21.45;54.55
29941;BME280;16801;53.562;10.038;2023-08-31T11:36:57;100639.50;;;22.82;51.90
29941;BME280;16801;53.562;10.038;2023-08-31T11:40:18;100647.56;;;26.53;44.93
29941;BME280;16801;53.562;10.038;2023-08-31T11:43:39;100639.50;;;25.66;45.25
29941;BME280;16801;53.562;10.038;2023-08-31T11:47:00;100646.47;;;21.77;52.34
29941;BME280;16801;53.562;10.038;2023-08-31T11:50:24;100646.00;;;25.18;47.45
29941;BME280;16801;53.562;10.038;2023-08-31T11:53:46;100649.00;;;24.28;47.00
29941;BME280;16801;53.562;10.038;2023-08-31T11:57:08;100645.16;;;25.82;44.05
29941;BME280;16801;53.562;10.038;2023-08-31T12:00:29;100662.00;;;24.21;46.21
29941;BME280;16801;53.562;10.038;2023-08-31T12:03:50;100661.03;;;21.64;52.08
29941;BME280;16801;53.562;10.038;2023-08-31T12:07:16;100663.16;;;24.79;45.51
29941;BME280;16801;53.562;10.038;2023-08-31T12:10:39;100663.06;;;27.94;40.60
29941;BME280;16801;53.562;10.038;2023-08-31T12:14:01;100666.31;;;26.51;41.79
29941;BME280;16801;53.562;10.038;2023-08-31T12:17:23;100675.34;;;22.12;49.15
29941;BME280;16801;53.562;10.038;2023-08-31T12:20:45;100675.22;;;21.35;51.88
29941;BME280;16801;53.562;10.038;2023-08-31T12:24:08;100670.44;;;23.40;49.23
29941;BME280;16801;53.562;10.038;2023-08-31T12:27:28;100677.09;;;21.34;51.48
29941;BME280;16801;53.562;10.038;2023-08-31T12:30:52;100672.25;;;21.43;52.24
29941;BME280;16801;53.562;10.038;2023-08-31T12:34:13;100668.94;;;22.24;49.91
29941;BME280;16801;53.562;10.038;2023-08-31T12:37:34;100673.28;;;21.62;51.69
29941;BME280;16801;53.562;10.038;2023-08-31T12:40:56;100679.88;;;20.48;54.54
29941;BME280;16801;53.562;10.038;2023-08-31T12:44:17;100698.47;;;19.56;57.77
29941;BME280;16801;53.562;10.038;2023-08-31T12:47:37;100726.09;;;18.04;68.36
29941;BME280;16801;53.562;10.038;2023-08-31T12:50:59;100746.91;;;17.30;71.39
29941;BME280;16801;53.562;10.038;2023-08-31T12:54:19;100764.06;;;16.86;73.89
29941;BME280;16801;53.562;10.038;2023-08-31T12:57:43;100761.03;;;16.81;75.37
29941;BME280;16801;53.562;10.038;2023-08-31T13:01:04;100744.06;;;17.01;75.77
29941;BME280;16801;53.562;10.038;2023-08-31T13:04:25;100743.56;;;17.43;76.39
29941;BME280;16801;53.562;10.038;2023-08-31T13:07:46;100742.06;;;18.36;74.30
29941;BME280;16801;53.562;10.038;2023-08-31T13:11:07;100740.06;;;18.74;72.54
29941;BME280;16801;53.562;10.038;2023-08-31T13:14:29;100733.84;;;19.01;70.13
29941;BME280;16801;53.562;10.038;2023-08-31T13:17:50;100722.38;;;20.98;66.27
29941;BME280;16801;53.562;10.038;2023-08-31T13:21:11;100718.34;;;22.44;61.67
29941;BME280;16801;53.562;10.038;2023-08-31T13:24:32;100713.59;;;25.69;52.68
29941;BME280;16801;53.562;10.038;2023-08-31T13:27:53;100711.22;;;26.81;46.56
29941;BME280;16801;53.562;10.038;2023-08-31T13:31:15;100721.84;;;28.51;43.77
29941;BME280;16801;53.562;10.038;2023-08-31T13:34:36;100717.16;;;28.73;43.42
29941;BME280;16801;53.562;10.038;2023-08-31T13:37:57;100717.25;;;28.78;41.45
29941;BME280;16801;53.562;10.038;2023-08-31T13:41:18;100717.34;;;27.12;42.27
29941;BME280;16801;53.562;10.038;2023-08-31T13:44:39;100715.81;;;24.78;48.32
29941;BME280;16801;53.562;10.038;2023-08-31T13:48:02;100715.53;;;23.64;50.14
29941;BME280;16801;53.562;10.038;2023-08-31T13:51:24;100711.13;;;24.06;47.24
29941;BME280;16801;53.562;10.038;2023-08-31T13:54:44;100711.59;;;25.34;45.78
29941;BME280;16801;53.562;10.038;2023-08-31T13:58:06;100712.44;;;26.62;44.25
29941;BME280;16801;53.562;10.038;2023-08-31T14:01:27;100721.84;;;21.94;50.41
29941;BME280;16801;53.562;10.038;2023-08-31T14:04:50;100722.50;;;23.66;48.51
29941;BME280;16801;53.562;10.038;2023-08-31T14:08:11;100709.66;;;23.78;48.81
29941;BME280;16801;53.562;10.038;2023-08-31T14:11:33;100720.03;;;20.95;53.64
29941;BME280;16801;53.562;10.038;2023-08-31T14:14:53;100725.88;;;19.63;58.79
29941;BME280;16801;53.562;10.038;2023-08-31T14:18:15;100719.81;;;19.25;61.17
29941;BME280;16801;53.562;10.038;2023-08-31T14:21:37;100731.06;;;19.15;62.34
29941;BME280;16801;53.562;10.038;2023-08-31T14:24:59;100730.38;;;20.39;61.53
29941;BME280;16801;53.562;10.038;2023-08-31T14:28:20;100721.41;;;21.64;55.83
29941;BME280;16801;53.562;10.038;2023-08-31T14:31:41;100733.44;;;20.63;58.86
29941;BME280;16801;53.562;10.038;2023-08-31T14:35:02;100745.41;;;19.39;62.00
29941;BME280;16801;53.562;10.038;2023-08-31T14:38:25;100733.47;;;18.83;64.80
29941;BME280;16801;53.562;10.038;2023-08-31T14:41:47;100733.13;;;19.77;63.83
29941;BME280;16801;53.562;10.038;2023-08-31T14:45:08;100728.44;;;19.71;61.93
29941;BME280;16801;53.562;10.038;2023-08-31T14:48:29;100729.69;;;19.05;64.34
29941;BME280;16801;53.562;10.038;2023-08-31T14:51:51;100728.88;;;20.02;63.57
29941;BME280;16801;53.562;10.038;2023-08-31T14:55:14;100726.91;;;19.89;60.68
29941;BME280;16801;53.562;10.038;2023-08-31T14:58:34;100734.53;;;19.94;61.34
29941;BME280;16801;53.562;10.038;2023-08-31T15:01:55;100736.47;;;19.30;62.70
29941;BME280;16801;53.562;10.038;2023-08-31T15:05:16;100729.91;;;19.25;62.84
29941;BME280;16801;53.562;10.038;2023-08-31T15:08:38;100744.16;;;19.20;62.65
29941;BME280;16801;53.562;10.038;2023-08-31T15:12:01;100734.03;;;19.35;63.51
29941;BME280;16801;53.562;10.038;2023-08-31T15:15:22;100738.69;;;18.99;64.80
29941;BME280;16801;53.562;10.038;2023-08-31T15:18:43;100740.03;;;18.88;65.07
29941;BME280;16801;53.562;10.038;2023-08-31T15:22:06;100745.34;;;18.75;66.13
29941;BME280;16801;53.562;10.038;2023-08-31T15:25:27;100746.41;;;18.60;66.18
29941;BME280;16801;53.562;10.038;2023-08-31T15:28:50;100750.84;;;18.61;67.32
29941;BME280;16801;53.562;10.038;2023-08-31T15:32:11;100748.66;;;19.06;66.64
29941;BME280;16801;53.562;10.038;2023-08-31T15:35:32;100744.00;;;19.07;66.74
29941;BME280;16801;53.562;10.038;2023-08-31T15:38:53;100749.41;;;19.00;65.49
29941;BME280;16801;53.562;10.038;2023-08-31T15:42:13;100760.09;;;18.95;66.24
29941;BME280;16801;53.562;10.038;2023-08-31T15:45:36;100763.25;;;18.99;65.54
29941;BME280;16801;53.562;10.038;2023-08-31T15:48:57;100763.22;;;18.78;65.98
29941;BME280;16801;53.562;10.038;2023-08-31T15:52:17;100761.66;;;19.04;66.40
29941;BME280;16801;53.562;10.038;2023-08-31T15:55:38;100774.50;;;18.54;66.66
29941;BME280;16801;53.562;10.038;2023-08-31T15:59:00;100770.78;;;18.61;67.64
29941;BME280;16801;53.562;10.038;2023-08-31T16:02:24;100762.84;;;18.81;68.30
29941;BME280;16801;53.562;10.038;2023-08-31T16:05:48;100768.88;;;19.12;68.59
29941;BME280;16801;53.562;10.038;2023-08-31T16:09:09;100767.38;;;19.31;67.04
29941;BME280;16801;53.562;10.038;2023-08-31T16:12:29;100768.59;;;19.43;65.28
29941;BME280;16801;53.562;10.038;2023-08-31T16:15:50;100763.34;;;19.27;63.44
29941;BME280;16801;53.562;10.038;2023-08-31T16:19:12;100765.97;;;18.78;64.55
29941;BME280;16801;53.562;10.038;2023-08-31T16:22:33;100759.69;;;18.98;65.16
29941;BME280;16801;53.562;10.038;2023-08-31T16:25:54;100761.06;;;18.73;64.26
29941;BME280;16801;53.562;10.038;2023-08-31T16:29:16;100759.19;;;19.31;63.41
29941;BME280;16801;53.562;10.038;2023-08-31T16:32:37;100761.34;;;19.14;65.98
29941;BME280;16801;53.562;10.038;2023-08-31T16:36:00;100766.50;;;19.45;65.35
29941;BME280;16801;53.562;10.038;2023-08-31T16:39:22;100781.47;;;19.49;65.44
29941;BME280;16801;53.562;10.038;2023-08-31T16:42:43;100780.00;;;18.75;66.95
29941;BME280;16801;53.562;10.038;2023-08-31T16:46:04;100788.31;;;18.08;69.48
29941;BME280;16801;53.562;10.038;2023-08-31T16:49:26;100783.31;;;18.41;68.92
29941;BME280;16801;53.562;10.038;2023-08-31T16:52:49;100802.41;;;18.41;69.55
29941;BME280;16801;53.562;10.038;2023-08-31T16:56:10;100795.56;;;18.45;69.02
29941;BME280;16801;53.562;10.038;2023-08-31T16:59:32;100794.41;;;18.10;69.95
29941;BME280;16801;53.562;10.038;2023-08-31T17:02:52;100804.09;;;18.42;69.34
29941;BME280;16801;53.562;10.038;2023-08-31T17:06:13;100802.00;;;18.00;70.41
29941;BME280;16801;53.562;10.038;2023-08-31T17:09:35;100796.69;;;17.70;71.79
29941;BME280;16801;53.562;10.038;2023-08-31T17:12:56;100806.41;;;17.49;73.02
29941;BME280;16801;53.562;10.038;2023-08-31T17:16:17;100807.66;;;17.62;73.40
29941;BME280;16801;53.562;10.038;2023-08-31T17:19:38;100801.28;;;17.69;73.41